KCHS/CHS METAR and TAF weather

Enter ICAO airport designator
Station Type Date Time Source
KCHS METAR 2022/11/30 15:56 UTC NOAA

KCHS 301556Z 18007KT 10SM -RA SCT050 BKN090 OVC200 18/17 A3011 RMK AO2 SLP197 P0003 T01830167


Station Type Date Time Source
KCHS Decoded METAR 2022/11/30 15:56 UTC NOAA

CHARLESTON INT'L AIRPORT, SC, United States (KCHS) 32-54N 080-02W 13M
Nov 30, 2022 - 10:56 AM EST / 2022.11.30 1556 UTC
Wind: from the S (180 degrees) at 8 MPH (7 KT):0
Visibility: 10 mile(s):0
Sky conditions: overcast
Weather: light rain
Precipitation last hour: 0.03 inches
Temperature: 64.9 F (18.3 C)
Dew Point: 62.1 F (16.7 C)
Relative Humidity: 90%
Pressure (altimeter): 30.11 in. Hg (1019 hPa)
ob: KCHS 301556Z 18007KT 10SM -RA SCT050 BKN090 OVC200 18/17 A3011 RMK AO2 SLP197 P0003 T01830167
cycle: 16

Station Type Date Time Source
KCHS TAF 2022/11/30 15:06 UTC NOAA

TAF
AMD KCHS 301503Z 3015/0112 24011KT 5SM -SHRA OVC035
FM302000 24011KT P6SM VCSH BKN035
FM302200 30008KT P6SM SCT035
FM010500 36009KT P6SM SKC

Example: see airport list